Time;durP1;ratioP1;P1;durP2;ratioP2;P2;SDS_P1;SDS_P2;PMS_P1;PMS_P2;Temp;Humidity;BMP_temperature;BMP_pressure;BME280_temperature;BME280_humidity;BME280_pressure;Samples;Min_cycle;Max_cycle;Signal;HPM_P1;HPM_P2
2023/03/20 00:01:54;;;;;;;2.80;1.00;;;17.40;99.90;;;;;;5118984;28;20059;-64
2023/03/20 00:04:21;;;;;;;3.92;0.82;;;17.40;99.90;;;;;;5099495;28;20059;-64
2023/03/20 00:06:47;;;;;;;2.65;0.85;;;17.40;99.90;;;;;;5117868;28;20414;-65
2023/03/20 00:09:13;;;;;;;3.33;0.98;;;17.40;99.90;;;;;;5118725;28;20038;-64
2023/03/20 00:11:47;;;;;;;2.20;0.93;;;17.40;99.90;;;;;;5118476;27;20027;-64
2023/03/20 00:14:14;;;;;;;2.17;0.80;;;17.40;99.90;;;;;;5118609;28;20034;-64
2023/03/20 00:16:45;;;;;;;3.65;0.80;;;17.30;99.90;;;;;;5118422;28;20086;-63
2023/03/20 00:19:24;;;;;;;2.58;0.88;;;17.30;99.90;;;;;;5116621;28;20043;-63
2023/03/20 00:21:52;;;;;;;2.35;0.73;;;17.40;99.90;;;;;;5118551;28;20099;-64
2023/03/20 00:24:19;;;;;;;2.72;0.90;;;17.40;99.90;;;;;;5118450;28;20028;-63
2023/03/20 00:26:46;;;;;;;2.00;0.90;;;17.30;99.90;;;;;;5117895;28;20028;-64
2023/03/20 00:29:25;;;;;;;2.08;0.77;;;17.30;99.90;;;;;;5117055;28;20023;-64
2023/03/20 00:31:51;;;;;;;2.08;0.90;;;17.40;99.90;;;;;;5118267;28;20024;-64
2023/03/20 00:34:19;;;;;;;2.80;1.00;;;17.40;99.90;;;;;;5116994;28;20043;-64
2023/03/20 00:36:46;;;;;;;2.33;0.80;;;17.30;99.90;;;;;;5117994;28;20024;-64
2023/03/20 00:39:12;;;;;;;1.70;0.80;;;17.30;99.90;;;;;;5118127;28;20062;-62
2023/03/20 00:41:38;;;;;;;1.05;0.70;;;17.30;99.90;;;;;;5117996;28;20446;-63
2023/03/20 00:44:25;;;;;;;1.73;0.80;;;17.30;99.90;;;;;;5116964;28;20024;-63
2023/03/20 00:46:55;;;;;;;2.05;0.80;;;17.30;99.90;;;;;;5100133;28;20052;-63
2023/03/20 00:49:28;;;;;;;1.55;0.80;;;17.30;99.90;;;;;;5115936;28;20023;-63
2023/03/20 00:51:54;;;;;;;2.20;0.70;;;17.30;99.90;;;;;;5117019;28;20042;-63
2023/03/20 00:54:20;;;;;;;4.40;0.88;;;17.30;99.90;;;;;;5116815;28;20039;-63
2023/03/20 00:57:04;;;;;;;1.77;0.80;;;17.30;99.90;;;;;;5099552;28;20351;-65
2023/03/20 00:59:34;;;;;;;1.58;0.80;;;17.30;99.90;;;;;;5117521;28;20121;-65
2023/03/20 01:02:01;;;;;;;1.75;0.82;;;17.30;99.90;;;;;;5116840;28;20104;-64
2023/03/20 01:04:35;;;;;;;1.90;0.70;;;17.30;99.90;;;;;;5116197;28;20418;-64
2023/03/20 01:07:01;;;;;;;2.05;0.70;;;17.30;99.90;;;;;;5117759;28;20103;-63
2023/03/20 01:09:27;;;;;;;2.65;0.90;;;17.30;99.90;;;;;;5117242;28;20039;-65
2023/03/20 01:11:53;;;;;;;3.10;0.70;;;17.30;99.90;;;;;;5116614;28;20031;-65
2023/03/20 01:14:19;;;;;;;4.95;0.77;;;17.30;99.90;;;;;;5117403;28;20115;-64
2023/03/20 01:16:45;;;;;;;1.58;0.80;;;17.30;99.90;;;;;;5116214;28;20110;-64
2023/03/20 01:19:15;;;;;;;1.20;0.77;;;17.30;99.90;;;;;;5098474;28;20099;-64
2023/03/20 01:21:41;;;;;;;3.08;0.80;;;17.30;99.90;;;;;;5116214;28;20475;-65
2023/03/20 01:24:08;;;;;;;2.88;0.70;;;17.30;99.90;;;;;;5117229;28;20020;-63
2023/03/20 01:26:35;;;;;;;2.85;1.10;;;17.30;99.90;;;;;;5116131;28;20414;-63
2023/03/20 01:29:02;;;;;;;4.22;0.70;;;17.30;99.90;;;;;;5114680;28;20027;-63
2023/03/20 01:31:29;;;;;;;1.33;0.80;;;17.30;99.90;;;;;;5095563;28;20415;-63
2023/03/20 01:33:56;;;;;;;3.22;0.90;;;17.20;99.90;;;;;;5094519;28;20044;-62
2023/03/20 01:36:23;;;;;;;0.95;0.80;;;17.30;99.90;;;;;;5095391;28;20080;-62
2023/03/20 01:38:54;;;;;;;2.65;0.80;;;17.30;99.90;;;;;;5095953;28;20028;-62
2023/03/20 01:41:22;;;;;;;1.23;0.80;;;17.30;99.90;;;;;;5095841;28;20032;-62
2023/03/20 01:43:48;;;;;;;3.28;1.02;;;17.30;99.90;;;;;;5095197;28;20063;-63
2023/03/20 01:46:27;;;;;;;3.28;0.80;;;17.30;99.90;;;;;;5095704;28;20107;-63
2023/03/20 01:49:04;;;;;;;2.05;0.75;;;17.30;99.90;;;;;;5077542;28;20070;-63
2023/03/20 01:51:31;;;;;;;2.90;0.80;;;17.30;99.90;;;;;;5078361;28;20035;-63
2023/03/20 01:54:10;;;;;;;3.05;0.80;;;17.30;99.90;;;;;;5063051;28;20036;-63
2023/03/20 01:56:52;;;;;;;4.18;1.00;;;17.20;99.90;;;;;;5095119;28;20073;-63
2023/03/20 01:59:30;;;;;;;3.92;0.90;;;17.30;99.90;;;;;;5095216;28;20024;-64
2023/03/20 02:01:57;;;;;;;3.38;0.80;;;17.30;99.90;;;;;;5078568;28;20032;-64
2023/03/20 02:04:36;;;;;;;4.22;0.93;;;17.20;99.90;;;;;;5094084;28;20040;-64
2023/03/20 02:07:15;;;;;;;3.83;0.93;;;17.30;99.90;;;;;;5095298;28;20024;-64
2023/03/20 02:09:47;;;;;;;4.35;0.90;;;17.20;99.90;;;;;;5094746;28;20028;-64
2023/03/20 02:12:20;;;;;;;2.08;0.82;;;17.20;99.90;;;;;;5095184;28;20437;-64
2023/03/20 02:14:48;;;;;;;5.55;1.00;;;17.20;99.90;;;;;;5094593;28;20063;-64
2023/03/20 02:17:23;;;;;;;2.60;0.82;;;17.20;99.90;;;;;;5095224;28;20020;-64
2023/03/20 02:19:56;;;;;;;3.72;0.95;;;17.20;99.90;;;;;;5094574;28;20419;-64
2023/03/20 02:22:44;;;;;;;4.50;0.98;;;17.20;99.90;;;;;;5095072;28;20040;-64
2023/03/20 02:25:17;;;;;;;2.03;0.77;;;17.20;99.90;;;;;;5078323;28;20050;-64
2023/03/20 02:28:13;;;;;;;2.38;0.70;;;17.20;99.90;;;;;;5094580;28;20038;-64
2023/03/20 02:30:48;;;;;;;1.98;0.90;;;17.30;99.90;;;;;;5110516;28;20032;-64
2023/03/20 02:33:36;;;;;;;2.47;0.85;;;17.20;99.90;;;;;;5113806;28;20039;-64
2023/03/20 02:36:27;;;;;;;2.70;0.85;;;17.20;99.90;;;;;;5115267;28;20102;-64
2023/03/20 02:39:02;;;;;;;1.63;0.63;;;17.20;99.90;;;;;;5114809;28;20066;-64
2023/03/20 02:42:00;;;;;;;3.95;0.98;;;17.20;99.90;;;;;;5115227;28;20418;-64
2023/03/20 02:44:40;;;;;;;2.38;0.90;;;17.20;99.90;;;;;;5115079;28;20101;-64
2023/03/20 02:47:31;;;;;;;2.45;0.90;;;17.20;99.90;;;;;;5115237;28;20415;-64
2023/03/20 02:50:14;;;;;;;3.00;1.02;;;17.20;99.90;;;;;;5118678;28;20102;-64
2023/03/20 02:52:50;;;;;;;2.78;1.00;;;17.20;99.90;;;;;;5119823;28;20047;-63
2023/03/20 02:55:30;;;;;;;1.85;0.98;;;17.20;99.90;;;;;;5120305;28;20023;-63
2023/03/20 02:58:16;;;;;;;2.90;1.00;;;17.20;99.90;;;;;;5119072;28;20027;-64
2023/03/20 03:00:54;;;;;;;1.73;0.80;;;17.20;99.90;;;;;;5119004;28;20027;-64
2023/03/20 03:03:56;;;;;;;3.53;1.00;;;17.20;99.90;;;;;;5117937;28;20032;-64
2023/03/20 03:06:33;;;;;;;3.00;1.02;;;17.20;99.90;;;;;;5081655;28;20063;-64
2023/03/20 03:09:19;;;;;;;1.67;0.73;;;17.20;99.90;;;;;;5101919;28;20028;-63
2023/03/20 03:11:50;;;;;;;1.85;0.80;;;17.20;99.90;;;;;;5118672;28;20039;-63
2023/03/20 03:14:31;;;;;;;1.40;0.73;;;17.20;99.90;;;;;;5119045;28;20023;-63
2023/03/20 03:16:59;;;;;;;3.30;0.90;;;17.20;99.90;;;;;;5119599;28;20031;-63
2023/03/20 03:19:28;;;;;;;2.40;0.90;;;17.20;99.90;;;;;;5100909;28;20505;-64
2023/03/20 03:21:54;;;;;;;2.10;0.90;;;17.20;99.90;;;;;;5118581;28;20067;-63
2023/03/20 03:24:41;;;;;;;2.17;0.93;;;17.20;99.90;;;;;;5118688;28;20403;-63
2023/03/20 03:27:20;;;;;;;2.38;0.90;;;17.20;99.90;;;;;;5119732;27;20067;-63
2023/03/20 03:29:52;;;;;;;1.75;0.77;;;17.20;99.90;;;;;;5118881;28;20458;-63
2023/03/20 03:32:33;;;;;;;1.92;0.80;;;17.20;99.90;;;;;;5101709;28;20105;-63
2023/03/20 03:35:02;;;;;;;5.57;1.08;;;17.20;99.90;;;;;;5112308;28;20047;-63
2023/03/20 03:37:36;;;;;;;2.65;1.10;;;17.20;99.90;;;;;;5098074;28;20028;-63
2023/03/20 03:40:14;;;;;;;3.15;0.90;;;17.20;99.90;;;;;;5098062;28;20373;-63
2023/03/20 03:43:03;;;;;;;2.17;0.82;;;17.20;99.90;;;;;;5098613;28;20426;-64
2023/03/20 03:46:10;;;;;;;1.60;0.75;;;17.20;99.90;;;;;;5098200;28;20081;-64
2023/03/20 03:48:44;;;;;;;2.97;1.13;;;17.20;99.90;;;;;;5087499;28;20044;-64
2023/03/20 03:51:17;;;;;;;3.03;0.95;;;17.20;99.90;;;;;;5097882;28;20461;-63
2023/03/20 03:54:05;;;;;;;2.13;0.68;;;17.20;99.90;;;;;;5097379;28;20036;-63
2023/03/20 03:56:34;;;;;;;1.95;0.90;;;17.20;99.90;;;;;;5097743;28;20038;-62
2023/03/20 03:59:07;;;;;;;2.55;1.02;;;17.10;99.90;;;;;;5114268;28;20056;-64
2023/03/20 04:01:34;;;;;;;2.45;0.77;;;17.20;99.90;;;;;;5096988;28;20020;-64
2023/03/20 04:04:05;;;;;;;2.45;0.88;;;17.10;99.90;;;;;;5097116;28;20059;-65
2023/03/20 04:06:32;;;;;;;2.65;0.90;;;17.10;99.90;;;;;;5114578;28;20024;-64
2023/03/20 04:08:58;;;;;;;3.47;0.90;;;17.10;99.90;;;;;;5098070;28;20037;-64
2023/03/20 04:11:27;;;;;;;1.30;0.80;;;17.10;99.90;;;;;;5097575;28;20032;-63
2023/03/20 04:13:53;;;;;;;1.55;0.90;;;17.10;99.90;;;;;;5096888;28;20034;-64
2023/03/20 04:16:21;;;;;;;2.05;1.00;;;17.10;99.90;;;;;;5097387;28;20020;-64
2023/03/20 04:18:47;;;;;;;2.88;1.05;;;17.10;99.90;;;;;;5095798;28;20055;-64
2023/03/20 04:21:15;;;;;;;1.80;0.95;;;17.20;99.90;;;;;;5114282;28;20115;-64
2023/03/20 04:23:42;;;;;;;1.88;0.88;;;17.10;99.90;;;;;;5096837;28;20414;-63
2023/03/20 04:26:08;;;;;;;2.03;1.13;;;17.10;99.90;;;;;;5097233;28;20054;-64
2023/03/20 04:28:35;;;;;;;2.05;1.00;;;17.10;99.90;;;;;;5080210;28;20039;-63
2023/03/20 04:31:29;;;;;;;1.95;1.02;;;17.10;99.90;;;;;;5078513;28;20132;-63
2023/03/20 04:34:09;;;;;;;3.35;1.10;;;17.10;99.90;;;;;;5096637;28;20435;-63
2023/03/20 04:36:54;;;;;;;2.88;1.10;;;17.10;99.90;;;;;;5097664;28;20115;-64
2023/03/20 04:39:25;;;;;;;2.25;1.10;;;17.10;99.90;;;;;;5096940;28;20059;-65
2023/03/20 04:41:51;;;;;;;4.80;1.10;;;17.10;99.90;;;;;;5096607;28;20028;-64
2023/03/20 04:44:17;;;;;;;1.45;0.95;;;17.10;99.90;;;;;;5079935;28;20040;-65
2023/03/20 04:46:45;;;;;;;2.42;1.08;;;17.10;99.90;;;;;;5096479;28;20055;-65
2023/03/20 04:49:15;;;;;;;2.28;1.27;;;17.10;99.90;;;;;;5096303;28;20028;-64
2023/03/20 04:51:41;;;;;;;2.30;1.20;;;17.10;99.90;;;;;;5079492;28;20055;-65
2023/03/20 04:54:09;;;;;;;2.97;1.10;;;17.10;99.90;;;;;;5096403;28;20024;-65
2023/03/20 04:56:34;;;;;;;5.53;1.35;;;17.10;99.90;;;;;;5079726;28;20039;-65
2023/03/20 04:59:12;;;;;;;2.92;1.33;;;17.10;99.90;;;;;;5081160;28;20047;-64
2023/03/20 05:01:38;;;;;;;2.20;1.25;;;17.10;99.90;;;;;;5096475;28;20028;-64
2023/03/20 05:04:04;;;;;;;2.58;1.08;;;17.10;99.90;;;;;;5094877;28;20028;-64
2023/03/20 05:06:32;;;;;;;3.17;1.30;;;17.10;99.90;;;;;;5096450;28;20029;-64
2023/03/20 05:08:59;;;;;;;3.63;1.48;;;17.10;99.90;;;;;;5095817;28;20035;-65
2023/03/20 05:11:27;;;;;;;2.35;1.23;;;17.10;99.90;;;;;;5095592;28;20024;-64
2023/03/20 05:14:10;;;;;;;3.05;1.40;;;17.10;99.90;;;;;;5096035;28;20032;-64
2023/03/20 05:16:55;;;;;;;3.58;1.58;;;17.10;99.90;;;;;;5096859;28;20036;-64
2023/03/20 05:19:37;;;;;;;3.38;1.40;;;17.10;99.90;;;;;;5094912;28;20032;-65
2023/03/20 05:22:06;;;;;;;3.25;1.20;;;17.10;99.90;;;;;;5096981;28;20028;-64
2023/03/20 05:24:51;;;;;;;2.42;1.30;;;17.10;99.90;;;;;;5096640;28;20032;-64
2023/03/20 05:27:37;;;;;;;;;;;17.10;99.90;;;;;;5065798;28;20051;-64
2023/03/20 05:30:26;;;;;;;5.68;1.70;;;17.00;99.90;;;;;;5077193;28;19919;-64
2023/03/20 05:32:57;;;;;;;3.58;1.25;;;17.00;99.90;;;;;;5095196;28;20048;-64
2023/03/20 05:35:26;;;;;;;2.38;1.20;;;17.00;99.90;;;;;;5096777;28;20040;-64
2023/03/20 05:37:58;;;;;;;2.90;1.30;;;17.00;99.90;;;;;;5096323;28;20115;-64
2023/03/20 05:40:44;;;;;;;4.20;1.38;;;17.00;99.90;;;;;;5096155;28;20123;-64
2023/03/20 05:43:30;;;;;;;7.03;1.67;;;17.00;99.90;;;;;;5096163;28;20052;-63
2023/03/20 05:46:19;;;;;;;2.75;1.30;;;17.00;99.90;;;;;;5095294;28;20491;-64
2023/03/20 05:49:04;;;;;;;3.65;1.55;;;17.00;99.90;;;;;;5103308;28;20058;-63
2023/03/20 05:51:50;;;;;;;6.40;1.50;;;17.00;99.90;;;;;;5095197;28;20327;-63
2023/03/20 05:54:26;;;;;;;3.67;1.40;;;17.00;99.90;;;;;;5095375;28;20111;-63
2023/03/20 05:57:05;;;;;;;3.65;1.55;;;17.00;99.90;;;;;;5101471;28;20035;-64
2023/03/20 05:59:56;;;;;;;3.50;1.30;;;17.00;99.90;;;;;;5079556;28;20285;-64
2023/03/20 06:02:42;;;;;;;2.80;1.35;;;17.00;99.90;;;;;;5095008;28;20067;-65
2023/03/20 06:05:28;;;;;;;2.25;1.30;;;17.00;99.90;;;;;;5096318;28;20031;-65
2023/03/20 06:07:55;;;;;;;3.13;1.40;;;17.00;99.90;;;;;;5095893;28;20107;-65
2023/03/20 06:10:21;;;;;;;3.20;1.40;;;17.00;99.90;;;;;;5095459;28;20056;-65
2023/03/20 06:12:48;;;;;;;3.80;1.33;;;17.00;99.90;;;;;;5094631;28;20032;-65
2023/03/20 06:15:15;;;;;;;3.95;1.42;;;17.00;99.90;;;;;;5095396;28;20103;-64
2023/03/20 06:17:47;;;;;;;2.92;1.30;;;17.00;99.90;;;;;;5077266;28;20406;-66
2023/03/20 06:20:14;;;;;;;3.97;1.30;;;17.00;99.90;;;;;;5078464;28;20058;-63
2023/03/20 06:22:40;;;;;;;3.78;1.50;;;17.10;99.90;;;;;;5094562;28;20036;-65
2023/03/20 06:25:07;;;;;;;3.70;1.42;;;17.10;99.90;;;;;;5077955;28;20036;-62
2023/03/20 06:27:38;;;;;;;3.70;1.13;;;17.10;99.90;;;;;;5078890;28;20036;-64
2023/03/20 06:30:05;;;;;;;1.98;1.20;;;17.00;99.90;;;;;;5088540;28;20437;-63
2023/03/20 06:32:34;;;;;;;2.63;1.30;;;17.10;99.90;;;;;;5114193;28;20057;-66
2023/03/20 06:35:04;;;;;;;4.10;1.20;;;17.10;99.90;;;;;;5114676;28;20438;-65
2023/03/20 06:37:31;;;;;;;3.53;1.55;;;17.00;99.90;;;;;;5114269;28;20080;-66
2023/03/20 06:40:07;;;;;;;4.05;1.60;;;17.10;99.90;;;;;;5105804;28;20036;-66
2023/03/20 06:42:35;;;;;;;5.13;1.35;;;17.00;99.90;;;;;;5094802;28;20043;-66
2023/03/20 06:45:02;;;;;;;4.25;1.42;;;17.10;99.90;;;;;;5094665;28;20062;-66
2023/03/20 06:47:46;;;;;;;3.22;1.40;;;17.10;99.90;;;;;;5094583;28;20128;-66
2023/03/20 06:50:13;;;;;;;5.28;1.60;;;17.10;99.90;;;;;;5094566;28;20068;-66
2023/03/20 06:52:39;;;;;;;3.03;1.13;;;17.10;99.90;;;;;;5094577;28;20043;-66
2023/03/20 06:55:25;;;;;;;6.45;1.30;;;17.10;99.90;;;;;;5095722;28;20024;-66
2023/03/20 06:57:51;;;;;;;5.30;1.55;;;17.00;99.90;;;;;;5094406;28;20139;-66
2023/03/20 07:00:19;;;;;;;9.10;1.60;;;17.10;99.90;;;;;;5094694;28;20032;-64
2023/03/20 07:02:45;;;;;;;13.80;2.15;;;17.10;99.90;;;;;;5093424;28;20032;-65
2023/03/20 07:05:14;;;;;;;18.23;2.08;;;17.10;99.90;;;;;;5097110;28;20063;-65
2023/03/20 07:07:40;;;;;;;6.22;1.73;;;17.10;99.90;;;;;;5086160;28;20389;-65
2023/03/20 07:10:08;;;;;;;7.28;2.13;;;17.10;99.90;;;;;;5113159;28;20044;-64
2023/03/20 07:12:35;;;;;;;5.10;1.80;;;17.10;99.90;;;;;;5113512;28;20110;-65
2023/03/20 07:15:01;;;;;;;3.58;1.80;;;17.10;99.90;;;;;;5097831;28;20032;-64
2023/03/20 07:17:28;;;;;;;4.20;1.75;;;17.10;99.90;;;;;;5097756;28;20027;-64
2023/03/20 07:19:54;;;;;;;8.23;2.05;;;17.10;99.90;;;;;;5115093;28;20365;-65
2023/03/20 07:22:25;;;;;;;8.93;1.92;;;17.10;99.90;;;;;;5081232;28;20032;-65
2023/03/20 07:25:01;;;;;;;7.93;1.92;;;17.10;99.90;;;;;;5114627;28;20107;-65
2023/03/20 07:27:28;;;;;;;6.95;1.90;;;17.10;99.90;;;;;;5114755;28;20031;-65
2023/03/20 07:29:55;;;;;;;6.75;2.10;;;17.10;99.90;;;;;;5114416;28;20024;-65
2023/03/20 07:32:22;;;;;;;5.22;1.83;;;17.10;99.90;;;;;;5097919;28;20418;-65
2023/03/20 07:34:49;;;;;;;4.38;1.90;;;17.10;99.90;;;;;;5113595;28;20047;-64
2023/03/20 07:37:17;;;;;;;7.28;1.90;;;17.10;99.90;;;;;;5109520;27;20036;-65
2023/03/20 07:39:54;;;;;;;5.65;2.20;;;17.10;99.90;;;;;;5096946;28;20043;-64
2023/03/20 07:42:44;;;;;;;7.10;1.70;;;17.10;99.90;;;;;;5097139;28;20115;-64
2023/03/20 07:45:13;;;;;;;5.85;1.90;;;17.10;99.90;;;;;;5097792;28;20035;-65
2023/03/20 07:47:47;;;;;;;6.18;2.03;;;17.00;99.90;;;;;;5079701;28;20052;-65
2023/03/20 07:50:13;;;;;;;5.28;2.00;;;17.00;99.90;;;;;;5097933;28;20372;-65
2023/03/20 07:52:46;;;;;;;5.03;2.20;;;17.00;99.90;;;;;;5097556;28;20036;-64
2023/03/20 07:55:12;;;;;;;3.75;1.85;;;17.10;99.90;;;;;;5097535;28;20027;-64
2023/03/20 07:57:38;;;;;;;7.43;2.33;;;17.10;99.90;;;;;;5114575;28;20074;-64
2023/03/20 08:00:04;;;;;;;5.68;2.22;;;17.00;99.90;;;;;;5097419;28;20060;-65
2023/03/20 08:02:37;;;;;;;5.10;1.90;;;17.00;99.90;;;;;;5097628;28;20115;-64
2023/03/20 08:05:03;;;;;;;5.72;1.83;;;17.00;99.90;;;;;;5080383;28;20123;-64
2023/03/20 08:07:29;;;;;;;5.78;2.20;;;17.00;99.90;;;;;;5097608;28;20048;-64
2023/03/20 08:09:55;;;;;;;6.15;2.20;;;17.00;99.90;;;;;;5097571;28;20107;-65
2023/03/20 08:12:21;;;;;;;6.38;1.88;;;17.00;99.90;;;;;;5098241;28;20162;-65
2023/03/20 08:14:47;;;;;;;6.00;2.15;;;17.00;99.90;;;;;;5098213;28;20047;-65
2023/03/20 08:17:13;;;;;;;3.95;1.90;;;17.00;99.90;;;;;;5098315;28;20365;-65
2023/03/20 08:19:39;;;;;;;7.93;2.50;;;17.00;99.90;;;;;;5097293;28;20099;-65
2023/03/20 08:22:05;;;;;;;5.75;2.00;;;17.00;99.90;;;;;;5097970;28;20047;-65
2023/03/20 08:24:31;;;;;;;6.38;2.30;;;17.00;99.90;;;;;;5098137;28;20149;-65
2023/03/20 08:26:57;;;;;;;4.50;1.90;;;17.00;99.90;;;;;;5098202;28;20105;-65
2023/03/20 08:29:23;;;;;;;5.07;2.05;;;17.00;99.90;;;;;;5102810;28;20318;-65
2023/03/20 08:31:49;;;;;;;6.53;1.95;;;17.00;99.90;;;;;;5118434;28;20027;-65
2023/03/20 08:34:15;;;;;;;5.28;1.90;;;17.00;99.90;;;;;;5117032;27;20047;-65
2023/03/20 08:36:41;;;;;;;4.07;1.75;;;17.00;99.90;;;;;;5096944;28;20032;-65
2023/03/20 08:39:08;;;;;;;4.60;2.10;;;17.00;99.90;;;;;;5097569;28;20418;-65
2023/03/20 08:41:37;;;;;;;5.03;2.00;;;17.00;99.90;;;;;;5096977;28;20028;-65
2023/03/20 08:44:04;;;;;;;5.35;2.17;;;17.00;99.90;;;;;;5114752;28;20430;-65
2023/03/20 08:46:31;;;;;;;6.38;2.10;;;17.00;99.90;;;;;;5117026;28;20483;-65
2023/03/20 08:48:57;;;;;;;5.22;1.95;;;17.00;99.90;;;;;;5117092;27;20038;-65
2023/03/20 08:51:24;;;;;;;4.38;1.83;;;17.00;99.90;;;;;;5117930;28;20027;-65
2023/03/20 08:53:50;;;;;;;3.78;1.80;;;17.00;99.90;;;;;;5117799;28;20030;-65
2023/03/20 08:56:16;;;;;;;4.63;1.90;;;17.00;99.90;;;;;;5116773;28;20032;-65
2023/03/20 08:58:42;;;;;;;4.35;1.65;;;17.00;99.90;;;;;;5117828;28;20398;-65
2023/03/20 09:01:09;;;;;;;4.40;2.10;;;17.00;99.90;;;;;;5117711;28;20063;-66
2023/03/20 09:03:35;;;;;;;4.45;1.98;;;17.00;99.90;;;;;;5116829;28;20032;-66
2023/03/20 09:06:05;;;;;;;3.75;1.80;;;17.00;99.90;;;;;;5117867;28;20031;-65
2023/03/20 09:08:32;;;;;;;4.22;1.70;;;17.00;99.90;;;;;;5117754;28;20027;-65
2023/03/20 09:10:58;;;;;;;4.30;1.70;;;17.00;99.90;;;;;;5117718;27;20426;-65
2023/03/20 09:13:24;;;;;;;4.35;1.60;;;17.00;99.90;;;;;;5117245;28;20161;-65
2023/03/20 09:15:51;;;;;;;3.65;1.80;;;17.00;99.90;;;;;;5117496;28;20024;-66
2023/03/20 09:18:19;;;;;;;2.75;1.50;;;17.00;99.90;;;;;;5115370;28;20035;-65
2023/03/20 09:20:48;;;;;;;4.97;1.70;;;17.00;99.90;;;;;;5117493;28;20034;-65
2023/03/20 09:23:15;;;;;;;4.93;1.98;;;17.00;99.90;;;;;;5117101;28;20038;-65
2023/03/20 09:25:41;;;;;;;4.75;1.90;;;17.00;99.90;;;;;;5117393;28;20092;-65
2023/03/20 09:28:07;;;;;;;5.22;1.80;;;17.00;99.90;;;;;;5117148;28;20035;-65
2023/03/20 09:30:33;;;;;;;4.25;1.80;;;17.00;99.90;;;;;;5102272;28;20075;-65
2023/03/20 09:32:59;;;;;;;4.20;1.70;;;17.00;99.90;;;;;;5094562;28;20533;-65
2023/03/20 09:35:25;;;;;;;3.38;1.58;;;17.00;99.90;;;;;;5096618;28;20111;-65
2023/03/20 09:37:51;;;;;;;4.82;1.80;;;17.00;99.90;;;;;;5096623;28;20419;-65
2023/03/20 09:40:27;;;;;;;3.72;1.60;;;17.00;99.90;;;;;;5098711;28;20055;-65
2023/03/20 09:43:11;;;;;;;;;;;17.00;99.90;;;;;;5117495;28;20028;-65
2023/03/20 09:45:42;;;;;;;4.10;1.80;;;17.00;99.90;;;;;;5097935;28;19913;-65
2023/03/20 09:48:39;;;;;;;3.92;1.73;;;17.00;99.90;;;;;;5103734;28;20032;-65
2023/03/20 09:51:30;;;;;;;4.63;1.85;;;17.00;99.90;;;;;;5116975;28;20050;-65
2023/03/20 09:54:06;;;;;;;6.47;2.20;;;17.00;99.90;;;;;;5116621;28;20084;-65
2023/03/20 09:56:32;;;;;;;5.57;1.75;;;17.00;99.90;;;;;;5116685;28;20019;-65
2023/03/20 09:59:05;;;;;;;5.35;1.80;;;17.00;99.90;;;;;;5115088;28;20028;-65
2023/03/20 10:01:42;;;;;;;4.05;1.60;;;17.00;99.90;;;;;;5116638;28;20057;-65
2023/03/20 10:04:10;;;;;;;5.47;1.75;;;17.00;99.90;;;;;;5115709;28;20036;-65
2023/03/20 10:06:36;;;;;;;3.38;1.60;;;17.00;99.90;;;;;;5115789;28;20032;-65
2023/03/20 10:09:14;;;;;;;3.75;1.52;;;17.00;99.90;;;;;;5115450;28;20024;-65
2023/03/20 10:11:43;;;;;;;5.75;2.08;;;17.00;99.90;;;;;;5116684;28;20036;-65
2023/03/20 10:14:29;;;;;;;5.97;1.85;;;17.00;99.90;;;;;;5116295;28;20422;-65
2023/03/20 10:17:11;;;;;;;4.55;1.58;;;17.00;99.90;;;;;;5115456;28;20023;-65
2023/03/20 10:20:01;;;;;;;5.32;1.70;;;17.00;99.90;;;;;;5115070;28;20070;-65
2023/03/20 10:22:30;;;;;;;4.60;1.75;;;17.00;99.90;;;;;;5115261;28;20035;-64
2023/03/20 10:25:10;;;;;;;4.60;1.70;;;17.00;99.90;;;;;;5116371;28;20033;-65
2023/03/20 10:27:45;;;;;;;4.15;1.63;;;17.00;99.90;;;;;;5116001;28;20024;-65
2023/03/20 10:30:32;;;;;;;4.32;1.55;;;17.00;99.90;;;;;;5115171;28;20080;-65
2023/03/20 10:33:25;;;;;;;5.38;1.80;;;17.00;99.90;;;;;;5114742;28;20051;-65
2023/03/20 10:36:02;;;;;;;3.90;1.40;;;17.00;99.90;;;;;;5116225;28;20030;-64
2023/03/20 10:38:44;;;;;;;4.78;1.70;;;17.00;99.90;;;;;;5115943;28;20032;-65
2023/03/20 10:41:17;;;;;;;4.65;1.65;;;17.00;99.90;;;;;;5116294;28;20055;-65
2023/03/20 10:43:46;;;;;;;4.07;1.60;;;17.00;99.90;;;;;;5115239;28;20028;-65
2023/03/20 10:46:35;;;;;;;5.18;1.60;;;17.00;99.90;;;;;;5115235;28;20030;-65
2023/03/20 10:49:40;;;;;;;4.22;1.48;;;17.00;99.90;;;;;;5114902;28;20426;-65
2023/03/20 10:52:18;;;;;;;3.78;1.35;;;17.00;99.90;;;;;;5116171;28;20110;-65
2023/03/20 10:55:15;;;;;;;4.00;1.50;;;17.00;99.90;;;;;;5115893;28;20113;-65
2023/03/20 10:57:47;;;;;;;4.57;1.25;;;17.00;99.90;;;;;;5115326;28;20067;-65
2023/03/20 11:00:21;;;;;;;5.05;1.70;;;17.00;99.90;;;;;;5116121;28;20069;-65
2023/03/20 11:02:47;;;;;;;4.72;1.50;;;17.00;99.90;;;;;;5113751;28;20707;-65
2023/03/20 11:05:35;;;;;;;4.65;1.38;;;17.00;99.90;;;;;;5116189;28;20019;-65
2023/03/20 11:08:06;;;;;;;3.78;1.38;;;17.00;99.90;;;;;;5114780;28;20110;-65
2023/03/20 11:10:35;;;;;;;3.58;1.30;;;17.00;99.90;;;;;;5118916;28;20035;-65
2023/03/20 11:13:25;;;;;;;3.78;1.35;;;17.00;99.90;;;;;;5119770;28;20027;-65
2023/03/20 11:15:53;;;;;;;4.80;1.48;;;17.00;99.90;;;;;;5119948;28;20030;-65
2023/03/20 11:18:19;;;;;;;3.67;1.65;;;17.00;99.90;;;;;;5117583;28;20453;-65
2023/03/20 11:20:51;;;;;;;4.43;1.50;;;17.00;99.90;;;;;;5119918;28;20073;-65
2023/03/20 11:23:23;;;;;;;4.35;1.58;;;17.00;99.90;;;;;;5119819;28;20027;-65
2023/03/20 11:25:56;;;;;;;3.88;1.25;;;17.00;99.90;;;;;;5119801;28;20024;-65
2023/03/20 11:28:45;;;;;;;4.53;1.45;;;17.00;99.90;;;;;;5119454;28;20450;-65
2023/03/20 11:31:20;;;;;;;4.47;1.98;;;17.00;99.90;;;;;;5119548;28;20031;-65
2023/03/20 11:33:52;;;;;;;3.83;1.20;;;17.00;99.90;;;;;;5117086;28;20431;-65
2023/03/20 11:36:25;;;;;;;5.55;1.38;;;17.00;99.90;;;;;;5119660;28;20073;-65
2023/03/20 11:38:56;;;;;;;3.38;1.23;;;17.00;99.90;;;;;;5119443;28;20026;-65
2023/03/20 11:41:27;;;;;;;4.60;1.40;;;17.00;99.90;;;;;;5119357;28;20073;-65
2023/03/20 11:43:54;;;;;;;5.40;1.30;;;17.00;99.90;;;;;;5118334;28;20080;-65
2023/03/20 11:46:22;;;;;;;3.88;1.50;;;17.00;99.90;;;;;;5119464;28;20039;-65
2023/03/20 11:49:19;;;;;;;4.35;1.60;;;17.00;99.90;;;;;;5118110;28;20059;-65
2023/03/20 11:51:45;;;;;;;3.65;1.40;;;17.00;99.90;;;;;;5118074;28;20031;-65
2023/03/20 11:54:25;;;;;;;3.80;1.50;;;17.00;99.90;;;;;;5118040;28;20060;-65
2023/03/20 11:56:57;;;;;;;3.38;1.50;;;17.00;99.90;;;;;;5119092;28;20039;-64
2023/03/20 11:59:34;;;;;;;4.38;1.58;;;17.00;99.90;;;;;;5118821;28;20058;-65
2023/03/20 12:02:18;;;;;;;3.72;1.40;;;17.00;99.90;;;;;;5118187;28;20024;-65
2023/03/20 12:04:46;;;;;;;3.63;1.15;;;17.00;99.90;;;;;;5117628;28;20110;-65
2023/03/20 12:07:21;;;;;;;2.88;1.20;;;17.00;99.90;;;;;;5119122;28;20034;-64
2023/03/20 12:10:03;;;;;;;3.00;1.27;;;17.00;99.90;;;;;;5117538;28;20024;-64
2023/03/20 12:12:48;;;;;;;2.92;1.17;;;17.00;99.90;;;;;;5117258;28;20031;-64
2023/03/20 12:15:35;;;;;;;3.35;1.10;;;17.00;99.90;;;;;;5118922;28;20031;-65
2023/03/20 12:18:27;;;;;;;2.97;1.30;;;17.00;99.90;;;;;;5117524;28;20023;-65
2023/03/20 12:21:15;;;;;;;3.72;1.23;;;17.00;99.90;;;;;;5118151;28;20026;-65
2023/03/20 12:23:46;;;;;;;2.90;1.10;;;16.90;99.90;;;;;;5118326;28;20106;-65
2023/03/20 12:26:17;;;;;;;4.28;1.20;;;16.90;99.90;;;;;;5117714;28;20031;-65
2023/03/20 12:28:49;;;;;;;4.28;1.38;;;17.00;99.90;;;;;;5117181;28;20085;-65
2023/03/20 12:31:49;;;;;;;4.88;1.27;;;17.00;99.90;;;;;;5098286;28;20491;-64
2023/03/20 12:34:25;;;;;;;3.65;1.45;;;17.00;99.90;;;;;;5096673;28;20045;-65
2023/03/20 12:36:56;;;;;;;;;;;17.00;99.90;;;;;;5098422;28;20032;-65
2023/03/20 12:39:34;;;;;;;3.85;1.20;;;16.90;99.90;;;;;;5097858;28;20333;-65
2023/03/20 12:42:11;;;;;;;3.20;1.23;;;16.90;99.90;;;;;;5098043;28;20074;-64
2023/03/20 12:44:49;;;;;;;3.58;1.20;;;16.90;99.90;;;;;;5097474;28;20024;-64
2023/03/20 12:47:45;;;;;;;3.63;1.20;;;16.90;99.90;;;;;;5098000;28;20036;-64
2023/03/20 12:50:40;;;;;;;3.50;1.33;;;16.90;99.90;;;;;;5097829;28;20165;-65
2023/03/20 12:53:27;;;;;;;2.50;1.10;;;16.90;99.90;;;;;;5097490;28;20028;-64
2023/03/20 12:56:30;;;;;;;2.67;1.33;;;16.90;99.90;;;;;;5097643;28;20047;-64
2023/03/20 12:59:27;;;;;;;2.83;1.10;;;16.90;99.90;;;;;;5097390;28;20426;-65
2023/03/20 13:02:02;;;;;;;3.67;1.10;;;16.90;99.90;;;;;;5094380;28;20032;-65
2023/03/20 13:04:59;;;;;;;1.80;1.10;;;16.90;99.90;;;;;;5095093;28;20090;-65
2023/03/20 13:07:56;;;;;;;3.00;1.33;;;16.90;99.90;;;;;;5079642;28;20366;-65
2023/03/20 13:10:37;;;;;;;3.42;1.30;;;16.90;99.90;;;;;;5079832;28;20304;-64
2023/03/20 13:13:15;;;;;;;3.00;1.17;;;16.90;99.90;;;;;;5097169;28;20035;-64
2023/03/20 13:15:51;;;;;;;3.20;1.30;;;16.90;99.90;;;;;;5097024;28;20442;-65
2023/03/20 13:18:24;;;;;;;3.50;1.40;;;16.90;99.90;;;;;;5078331;28;20040;-64
2023/03/20 13:20:54;;;;;;;3.38;1.30;;;16.90;99.90;;;;;;5096922;28;20443;-65
2023/03/20 13:23:41;;;;;;;2.10;1.00;;;16.90;99.90;;;;;;5096945;28;20054;-65